Terminal Aerodrome Forecast
Issued by NWS

Home | Current Version | Previous Version | Graphics & Text | Print | Product List | Glossary On
Versions: 1 2 3 4 5 6 7 8 9 10 11 12 13 14 15 16 17 18 19 20
000
FTUS43 KMPX 271743
TAFRNH
TAF
KRNH 271743Z 2718/2818 16006KT P6SM SCT050 BKN250
     FM280100 14007KT P6SM SCT040 OVC100
     FM280800 15006KT P6SM VCSH BKN040 OVC060
     FM281000 13009KT 6SM -SHRA BR BKN035 OVC040
     FM281300 12007KT 5SM -SHRA BR SCT008 BKN025 OVC040
     FM281700 10008KT P6SM BKN020 OVC040=

USA.gov is the U.S. government's official web portal to all federal, state and local government web resources and services.